sensor_id;sensor_type;location;lat;lon;timestamp;pressure;altitude;pressure_sealevel;temperature;humidity
61961;BME280;47923;42.506;24.192;2023-04-07T00:01:32;95233.81;;;0.90;60.28
61961;BME280;47923;42.506;24.192;2023-04-07T00:03:58;95204.34;;;0.64;61.10
61961;BME280;47923;42.506;24.192;2023-04-07T00:06:24;95245.63;;;0.83;61.00
61961;BME280;47923;42.506;24.192;2023-04-07T00:08:49;95195.31;;;0.51;60.59
61961;BME280;47923;42.506;24.192;2023-04-07T00:11:15;95151.91;;;0.19;60.42
61961;BME280;47923;42.506;24.192;2023-04-07T00:13:40;95052.81;;;-0.40;60.50
61961;BME280;47923;42.506;24.192;2023-04-07T00:16:06;95232.56;;;0.73;60.37
61961;BME280;47923;42.506;24.192;2023-04-07T00:18:31;95046.91;;;-0.37;60.22
61961;BME280;47923;42.506;24.192;2023-04-07T00:20:57;95258.75;;;1.02;60.48
61961;BME280;47923;42.506;24.192;2023-04-07T00:23:22;95238.13;;;0.86;59.66
61961;BME280;47923;42.506;24.192;2023-04-07T00:25:48;95252.47;;;0.98;60.03
61961;BME280;47923;42.506;24.192;2023-04-07T00:28:15;95182.25;;;0.41;60.51
61961;BME280;47923;42.506;24.192;2023-04-07T00:30:41;95097.28;;;-0.23;61.21
61961;BME280;47923;42.506;24.192;2023-04-07T00:33:06;95249.84;;;0.62;60.91
61961;BME280;47923;42.506;24.192;2023-04-07T00:35:32;94990.00;;;-1.22;61.28
61961;BME280;47923;42.506;24.192;2023-04-07T00:37:57;95247.13;;;0.40;62.07
61961;BME280;47923;42.506;24.192;2023-04-07T00:40:23;95212.53;;;0.17;62.58
61961;BME280;47923;42.506;24.192;2023-04-07T00:42:48;94994.22;;;-1.34;62.99
61961;BME280;47923;42.506;24.192;2023-04-07T00:45:14;94873.69;;;-2.06;62.78
61961;BME280;47923;42.506;24.192;2023-04-07T00:47:40;95240.97;;;0.31;63.17
61961;BME280;47923;42.506;24.192;2023-04-07T00:50:06;95246.97;;;0.22;63.30
61961;BME280;47923;42.506;24.192;2023-04-07T00:52:32;95241.16;;;0.20;63.54
61961;BME280;47923;42.506;24.192;2023-04-07T00:54:58;95249.03;;;0.25;63.89
61961;BME280;47923;42.506;24.192;2023-04-07T00:57:24;94819.91;;;-2.47;63.42
61961;BME280;47923;42.506;24.192;2023-04-07T00:59:51;95201.16;;;-0.11;64.08
61961;BME280;47923;42.506;24.192;2023-04-07T01:02:36;95248.34;;;0.06;64.54
61961;BME280;47923;42.506;24.192;2023-04-07T01:05:12;95248.25;;;-0.03;64.88
61961;BME280;47923;42.506;24.192;2023-04-07T01:07:51;95012.81;;;-1.67;65.25
61961;BME280;47923;42.506;24.192;2023-04-07T01:10:36;95185.41;;;-0.48;65.32
61961;BME280;47923;42.506;24.192;2023-04-07T01:13:33;95041.69;;;-1.52;65.14
61961;BME280;47923;42.506;24.192;2023-04-07T01:15:57;95254.66;;;-0.04;64.97
61961;BME280;47923;42.506;24.192;2023-04-07T01:18:32;94970.09;;;-1.93;65.05
61961;BME280;47923;42.506;24.192;2023-04-07T01:21:02;95173.00;;;-0.53;65.41
61961;BME280;47923;42.506;24.192;2023-04-07T01:26:16;95243.63;;;-0.24;65.61
61961;BME280;47923;42.506;24.192;2023-04-07T01:31:09;95240.38;;;-0.35;66.12
61961;BME280;47923;42.506;24.192;2023-04-07T01:33:37;95065.44;;;-1.60;66.65
61961;BME280;47923;42.506;24.192;2023-04-07T01:36:05;95248.13;;;-0.39;66.68
61961;BME280;47923;42.506;24.192;2023-04-07T01:38:32;95190.69;;;-0.76;66.75
61961;BME280;47923;42.506;24.192;2023-04-07T01:40:59;95245.19;;;-0.51;67.03
61961;BME280;47923;42.506;24.192;2023-04-07T01:43:26;95245.94;;;-0.64;67.31
61961;BME280;47923;42.506;24.192;2023-04-07T01:45:53;95253.78;;;-0.73;68.02
61961;BME280;47923;42.506;24.192;2023-04-07T01:48:20;95226.41;;;-1.01;68.27
61961;BME280;47923;42.506;24.192;2023-04-07T01:50:46;95190.63;;;-1.36;68.44
61961;BME280;47923;42.506;24.192;2023-04-07T01:53:13;95248.03;;;-0.94;68.96
61961;BME280;47923;42.506;24.192;2023-04-07T01:55:40;95097.28;;;-1.98;69.24
61961;BME280;47923;42.506;24.192;2023-04-07T01:58:06;95254.72;;;-1.15;69.62
61961;BME280;47923;42.506;24.192;2023-04-07T02:00:32;95255.16;;;-1.27;69.36
61961;BME280;47923;42.506;24.192;2023-04-07T02:03:14;95250.78;;;-1.36;69.27
61961;BME280;47923;42.506;24.192;2023-04-07T02:05:54;95245.06;;;-1.44;69.40
61961;BME280;47923;42.506;24.192;2023-04-07T02:08:23;95245.25;;;-1.40;69.58
61961;BME280;47923;42.506;24.192;2023-04-07T02:10:50;95235.53;;;-1.63;69.77
61961;BME280;47923;42.506;24.192;2023-04-07T02:13:18;95244.13;;;-1.53;70.82
61961;BME280;47923;42.506;24.192;2023-04-07T02:15:44;95253.00;;;-1.62;71.76
61961;BME280;47923;42.506;24.192;2023-04-07T02:18:14;95252.16;;;-1.58;71.70
61961;BME280;47923;42.506;24.192;2023-04-07T02:20:42;95245.03;;;-1.81;72.75
61961;BME280;47923;42.506;24.192;2023-04-07T02:23:09;95253.63;;;-1.71;72.35
61961;BME280;47923;42.506;24.192;2023-04-07T02:25:35;95159.44;;;-2.38;72.68
61961;BME280;47923;42.506;24.192;2023-04-07T02:28:03;95250.53;;;-1.78;73.54
61961;BME280;47923;42.506;24.192;2023-04-07T02:30:29;95253.78;;;-1.81;72.52
61961;BME280;47923;42.506;24.192;2023-04-07T02:32:55;95103.59;;;-2.80;73.24
61961;BME280;47923;42.506;24.192;2023-04-07T02:35:21;94983.22;;;-3.63;73.04
61961;BME280;47923;42.506;24.192;2023-04-07T02:37:46;95249.66;;;-1.92;74.19
61961;BME280;47923;42.506;24.192;2023-04-07T02:40:14;95239.66;;;-1.95;73.89
61961;BME280;47923;42.506;24.192;2023-04-07T02:42:40;95158.59;;;-2.58;74.33
61961;BME280;47923;42.506;24.192;2023-04-07T02:45:06;95250.13;;;-2.09;74.38
61961;BME280;47923;42.506;24.192;2023-04-07T02:47:33;95251.78;;;-2.13;74.67
61961;BME280;47923;42.506;24.192;2023-04-07T02:49:59;95006.75;;;-3.95;74.56
61961;BME280;47923;42.506;24.192;2023-04-07T02:52:31;95232.41;;;-2.56;75.62
61961;BME280;47923;42.506;24.192;2023-04-07T02:54:57;95247.88;;;-2.44;76.92
61961;BME280;47923;42.506;24.192;2023-04-07T02:57:22;95228.78;;;-2.65;76.75
61961;BME280;47923;42.506;24.192;2023-04-07T02:59:48;95152.41;;;-3.25;76.47
61961;BME280;47923;42.506;24.192;2023-04-07T03:02:15;95069.81;;;-3.94;76.92
61961;BME280;47923;42.506;24.192;2023-04-07T03:04:46;95235.78;;;-2.80;76.95
61961;BME280;47923;42.506;24.192;2023-04-07T03:07:11;95127.25;;;-3.46;76.92
61961;BME280;47923;42.506;24.192;2023-04-07T03:09:37;95201.88;;;-3.01;77.14
61961;BME280;47923;42.506;24.192;2023-04-07T03:12:02;95119.88;;;-3.49;76.36
61961;BME280;47923;42.506;24.192;2023-04-07T03:14:28;95239.59;;;-2.91;76.93
61961;BME280;47923;42.506;24.192;2023-04-07T03:16:53;95080.41;;;-3.99;77.09
61961;BME280;47923;42.506;24.192;2023-04-07T03:19:21;95242.66;;;-3.08;78.15
61961;BME280;47923;42.506;24.192;2023-04-07T03:21:47;95226.56;;;-3.11;77.93
61961;BME280;47923;42.506;24.192;2023-04-07T03:24:12;95265.72;;;-2.84;77.55
61961;BME280;47923;42.506;24.192;2023-04-07T03:26:37;95279.75;;;-2.89;77.16
61961;BME280;47923;42.506;24.192;2023-04-07T03:29:03;95218.66;;;-3.16;77.57
61961;BME280;47923;42.506;24.192;2023-04-07T03:31:29;95207.97;;;-3.30;77.66
61961;BME280;47923;42.506;24.192;2023-04-07T03:33:54;95272.75;;;-3.03;77.90
61961;BME280;47923;42.506;24.192;2023-04-07T03:36:20;95265.09;;;-3.05;78.18
61961;BME280;47923;42.506;24.192;2023-04-07T03:38:46;95263.81;;;-3.08;78.36
61961;BME280;47923;42.506;24.192;2023-04-07T03:41:11;95268.03;;;-3.07;78.71
61961;BME280;47923;42.506;24.192;2023-04-07T03:43:37;95270.13;;;-3.09;78.06
61961;BME280;47923;42.506;24.192;2023-04-07T03:46:02;94676.28;;;-7.03;78.04
61961;BME280;47923;42.506;24.192;2023-04-07T03:48:28;95028.09;;;-4.65;78.79
61961;BME280;47923;42.506;24.192;2023-04-07T03:50:53;95250.72;;;-3.23;78.96
61961;BME280;47923;42.506;24.192;2023-04-07T03:53:18;95006.88;;;-4.89;78.60
61961;BME280;47923;42.506;24.192;2023-04-07T03:55:44;95165.91;;;-4.00;79.22
61961;BME280;47923;42.506;24.192;2023-04-07T03:58:10;95219.84;;;-3.67;79.33
61961;BME280;47923;42.506;24.192;2023-04-07T04:00:35;95293.53;;;-3.26;79.51
61961;BME280;47923;42.506;24.192;2023-04-07T04:03:01;95246.44;;;-3.58;79.83
61961;BME280;47923;42.506;24.192;2023-04-07T04:05:27;95207.03;;;-3.88;79.47
61961;BME280;47923;42.506;24.192;2023-04-07T04:07:54;95142.03;;;-4.19;79.50
61961;BME280;47923;42.506;24.192;2023-04-07T04:10:20;95278.81;;;-3.37;79.63
61961;BME280;47923;42.506;24.192;2023-04-07T04:12:48;95238.00;;;-3.60;79.37
61961;BME280;47923;42.506;24.192;2023-04-07T04:15:16;95152.69;;;-3.95;79.46
61961;BME280;47923;42.506;24.192;2023-04-07T04:17:42;95295.75;;;-3.04;79.43
61961;BME280;47923;42.506;24.192;2023-04-07T04:20:07;95301.50;;;-2.97;77.58
61961;BME280;47923;42.506;24.192;2023-04-07T04:22:33;95154.28;;;-3.94;77.04
61961;BME280;47923;42.506;24.192;2023-04-07T04:25:05;95186.03;;;-3.70;77.70
61961;BME280;47923;42.506;24.192;2023-04-07T04:27:31;95254.88;;;-3.17;77.57
61961;BME280;47923;42.506;24.192;2023-04-07T04:29:56;95314.06;;;-2.79;77.22
61961;BME280;47923;42.506;24.192;2023-04-07T04:32:22;95020.16;;;-4.65;77.35
61961;BME280;47923;42.506;24.192;2023-04-07T04:34:49;95287.38;;;-2.82;76.79
61961;BME280;47923;42.506;24.192;2023-04-07T04:37:15;95197.47;;;-3.40;76.48
61961;BME280;47923;42.506;24.192;2023-04-07T04:39:40;94993.53;;;-4.63;76.36
61961;BME280;47923;42.506;24.192;2023-04-07T04:42:06;95314.03;;;-2.44;75.87
61961;BME280;47923;42.506;24.192;2023-04-07T04:44:31;95317.59;;;-2.30;75.52
61961;BME280;47923;42.506;24.192;2023-04-07T04:46:56;94800.25;;;-5.56;75.01
61961;BME280;47923;42.506;24.192;2023-04-07T04:49:25;95255.28;;;-2.41;74.64
61961;BME280;47923;42.506;24.192;2023-04-07T04:51:50;95237.75;;;-2.37;74.34
61961;BME280;47923;42.506;24.192;2023-04-07T04:54:19;95183.72;;;-2.55;73.86
61961;BME280;47923;42.506;24.192;2023-04-07T04:56:44;95065.06;;;-3.10;72.40
61961;BME280;47923;42.506;24.192;2023-04-07T04:59:12;95324.28;;;-1.23;72.50
61961;BME280;47923;42.506;24.192;2023-04-07T05:01:37;95184.34;;;-1.97;71.82
61961;BME280;47923;42.506;24.192;2023-04-07T05:04:05;95334.88;;;-0.86;71.38
61961;BME280;47923;42.506;24.192;2023-04-07T05:06:33;95238.09;;;-1.21;70.83
61961;BME280;47923;42.506;24.192;2023-04-07T05:08:58;95322.38;;;-0.34;69.49
61961;BME280;47923;42.506;24.192;2023-04-07T05:11:24;95139.09;;;-1.62;69.13
61961;BME280;47923;42.506;24.192;2023-04-07T05:13:50;95334.63;;;0.09;68.32
61961;BME280;47923;42.506;24.192;2023-04-07T05:16:15;95323.03;;;0.32;68.19
61961;BME280;47923;42.506;24.192;2023-04-07T05:18:40;95193.28;;;-0.30;65.75
61961;BME280;47923;42.506;24.192;2023-04-07T05:21:06;95284.31;;;0.53;64.08
61961;BME280;47923;42.506;24.192;2023-04-07T05:23:31;95329.53;;;1.03;64.20
61961;BME280;47923;42.506;24.192;2023-04-07T05:25:57;95295.03;;;0.98;63.87
61961;BME280;47923;42.506;24.192;2023-04-07T05:28:22;95207.56;;;0.74;62.12
61961;BME280;47923;42.506;24.192;2023-04-07T05:30:49;95336.03;;;2.18;59.93
61961;BME280;47923;42.506;24.192;2023-04-07T05:33:14;95335.28;;;2.66;58.56
61961;BME280;47923;42.506;24.192;2023-04-07T05:35:40;95351.97;;;3.49;57.16
61961;BME280;47923;42.506;24.192;2023-04-07T05:38:06;95324.56;;;7.32;48.25
61961;BME280;47923;42.506;24.192;2023-04-07T05:40:31;95175.84;;;9.47;38.40
61961;BME280;47923;42.506;24.192;2023-04-07T05:42:57;95320.69;;;12.13;33.59
61961;BME280;47923;42.506;24.192;2023-04-07T05:45:23;95282.69;;;13.60;30.90
61961;BME280;47923;42.506;24.192;2023-04-07T05:47:48;95233.22;;;14.67;27.71
61961;BME280;47923;42.506;24.192;2023-04-07T05:50:15;95176.72;;;15.35;26.44
61961;BME280;47923;42.506;24.192;2023-04-07T05:52:41;95265.78;;;16.22;25.27
61961;BME280;47923;42.506;24.192;2023-04-07T05:55:07;95268.78;;;15.68;25.65
61961;BME280;47923;42.506;24.192;2023-04-07T05:57:32;95212.22;;;17.01;22.54
61961;BME280;47923;42.506;24.192;2023-04-07T05:59:59;95112.47;;;16.55;22.89
61961;BME280;47923;42.506;24.192;2023-04-07T06:02:24;95309.16;;;18.80;21.24
61961;BME280;47923;42.506;24.192;2023-04-07T06:04:50;95237.41;;;18.69;21.75
61961;BME280;47923;42.506;24.192;2023-04-07T06:07:15;95113.25;;;18.12;20.57
61961;BME280;47923;42.506;24.192;2023-04-07T06:09:41;95302.75;;;20.00;19.96
61961;BME280;47923;42.506;24.192;2023-04-07T06:12:07;95025.81;;;18.95;18.75
61961;BME280;47923;42.506;24.192;2023-04-07T06:14:33;95306.69;;;20.55;18.95
61961;BME280;47923;42.506;24.192;2023-04-07T06:16:59;95296.44;;;20.92;18.72
61961;BME280;47923;42.506;24.192;2023-04-07T06:19:25;95312.72;;;22.06;19.34
61961;BME280;47923;42.506;24.192;2023-04-07T06:21:51;95300.19;;;22.59;17.19
61961;BME280;47923;42.506;24.192;2023-04-07T06:24:17;95272.00;;;22.43;16.63
61961;BME280;47923;42.506;24.192;2023-04-07T06:26:43;95185.47;;;23.82;16.84
61961;BME280;47923;42.506;24.192;2023-04-07T06:29:09;95218.44;;;24.79;14.80
61961;BME280;47923;42.506;24.192;2023-04-07T06:31:35;95294.06;;;24.19;15.08
61961;BME280;47923;42.506;24.192;2023-04-07T06:34:01;95107.97;;;22.80;15.62
61961;BME280;47923;42.506;24.192;2023-04-07T06:36:27;95291.88;;;24.36;14.07
61961;BME280;47923;42.506;24.192;2023-04-07T06:38:53;95294.44;;;25.70;14.73
61961;BME280;47923;42.506;24.192;2023-04-07T06:41:18;95303.34;;;26.47;13.51
61961;BME280;47923;42.506;24.192;2023-04-07T06:43:46;95168.00;;;25.52;12.86
61961;BME280;47923;42.506;24.192;2023-04-07T06:46:12;95298.22;;;25.26;13.54
61961;BME280;47923;42.506;24.192;2023-04-07T06:48:37;95291.41;;;25.86;13.40
61961;BME280;47923;42.506;24.192;2023-04-07T06:51:03;95261.97;;;24.75;13.17
61961;BME280;47923;42.506;24.192;2023-04-07T06:53:28;95289.91;;;25.08;13.05
61961;BME280;47923;42.506;24.192;2023-04-07T06:56:07;95235.00;;;26.44;13.20
61961;BME280;47923;42.506;24.192;2023-04-07T06:58:33;95296.38;;;26.94;11.75
61961;BME280;47923;42.506;24.192;2023-04-07T07:01:00;95236.25;;;26.52;12.31
61961;BME280;47923;42.506;24.192;2023-04-07T07:03:26;95132.22;;;27.38;13.99
61961;BME280;47923;42.506;24.192;2023-04-07T07:05:57;95254.75;;;28.28;11.57
61961;BME280;47923;42.506;24.192;2023-04-07T07:08:23;95302.22;;;27.53;11.75
61961;BME280;47923;42.506;24.192;2023-04-07T07:10:48;95301.19;;;26.42;12.06
61961;BME280;47923;42.506;24.192;2023-04-07T07:13:14;95308.56;;;26.27;12.34
61961;BME280;47923;42.506;24.192;2023-04-07T07:15:40;95188.72;;;25.84;12.89
61961;BME280;47923;42.506;24.192;2023-04-07T07:18:05;95304.56;;;27.54;12.26
61961;BME280;47923;42.506;24.192;2023-04-07T07:20:31;95215.75;;;27.78;12.18
61961;BME280;47923;42.506;24.192;2023-04-07T07:22:56;95306.22;;;30.14;10.90
61961;BME280;47923;42.506;24.192;2023-04-07T07:25:22;95238.97;;;28.84;10.99
61961;BME280;47923;42.506;24.192;2023-04-07T07:27:48;95298.34;;;27.12;11.51
61961;BME280;47923;42.506;24.192;2023-04-07T07:30:20;95286.91;;;28.20;11.72
61961;BME280;47923;42.506;24.192;2023-04-07T07:32:46;95305.25;;;29.56;11.25
61961;BME280;47923;42.506;24.192;2023-04-07T07:35:12;95287.38;;;28.04;11.33
61961;BME280;47923;42.506;24.192;2023-04-07T07:37:37;95302.16;;;27.71;11.64
61961;BME280;47923;42.506;24.192;2023-04-07T07:40:03;95239.97;;;26.40;11.46
61961;BME280;47923;42.506;24.192;2023-04-07T07:42:29;95266.84;;;26.49;11.87
61961;BME280;47923;42.506;24.192;2023-04-07T07:44:55;95266.38;;;26.50;11.77
61961;BME280;47923;42.506;24.192;2023-04-07T07:47:21;95295.63;;;26.51;11.88
61961;BME280;47923;42.506;24.192;2023-04-07T07:49:46;95279.09;;;25.78;12.64
61961;BME280;47923;42.506;24.192;2023-04-07T07:52:12;95319.69;;;24.20;13.29
61961;BME280;47923;42.506;24.192;2023-04-07T07:54:37;95311.22;;;25.66;12.47
61961;BME280;47923;42.506;24.192;2023-04-07T07:57:03;95230.34;;;23.39;13.62
61961;BME280;47923;42.506;24.192;2023-04-07T07:59:30;95298.72;;;28.59;12.54
61961;BME280;47923;42.506;24.192;2023-04-07T08:01:56;95280.28;;;28.03;10.83
61961;BME280;47923;42.506;24.192;2023-04-07T08:04:24;95203.31;;;27.11;11.67
61961;BME280;47923;42.506;24.192;2023-04-07T08:07:03;95298.81;;;27.58;11.07
61961;BME280;47923;42.506;24.192;2023-04-07T08:09:45;95304.75;;;29.78;11.74
61961;BME280;47923;42.506;24.192;2023-04-07T08:12:41;95299.59;;;30.38;9.98
61961;BME280;47923;42.506;24.192;2023-04-07T08:15:21;95302.03;;;31.19;10.01
61961;BME280;47923;42.506;24.192;2023-04-07T08:18:07;95302.66;;;30.40;10.09
61961;BME280;47923;42.506;24.192;2023-04-07T08:20:41;95260.06;;;29.26;10.48
61961;BME280;47923;42.506;24.192;2023-04-07T08:23:13;95301.59;;;27.01;12.86
61961;BME280;47923;42.506;24.192;2023-04-07T08:25:46;95306.97;;;26.62;12.03
61961;BME280;47923;42.506;24.192;2023-04-07T08:28:37;95342.22;;;26.62;12.07
61961;BME280;47923;42.506;24.192;2023-04-07T08:31:13;95298.28;;;25.35;12.72
61961;BME280;47923;42.506;24.192;2023-04-07T08:33:41;95142.00;;;23.42;13.55
61961;BME280;47923;42.506;24.192;2023-04-07T08:36:12;95295.03;;;26.38;13.02
61961;BME280;47923;42.506;24.192;2023-04-07T08:38:38;95244.59;;;26.76;12.59
61961;BME280;47923;42.506;24.192;2023-04-07T08:41:11;95286.16;;;28.34;11.96
61961;BME280;47923;42.506;24.192;2023-04-07T08:43:40;95250.63;;;26.14;11.84
61961;BME280;47923;42.506;24.192;2023-04-07T08:46:10;95306.09;;;26.38;12.69
61961;BME280;47923;42.506;24.192;2023-04-07T08:48:41;95235.88;;;28.18;12.05
61961;BME280;47923;42.506;24.192;2023-04-07T08:51:12;95194.19;;;27.73;10.91
61961;BME280;47923;42.506;24.192;2023-04-07T08:53:48;95217.41;;;28.94;11.93
61961;BME280;47923;42.506;24.192;2023-04-07T08:56:16;95283.94;;;29.33;10.28
61961;BME280;47923;42.506;24.192;2023-04-07T08:58:43;95111.94;;;25.42;12.02
61961;BME280;47923;42.506;24.192;2023-04-07T09:01:09;95187.91;;;27.88;11.61
61961;BME280;47923;42.506;24.192;2023-04-07T09:03:35;95287.78;;;26.92;12.02
61961;BME280;47923;42.506;24.192;2023-04-07T09:06:02;95280.13;;;24.76;13.82
61961;BME280;47923;42.506;24.192;2023-04-07T09:08:28;95301.50;;;24.53;13.42
61961;BME280;47923;42.506;24.192;2023-04-07T09:10:55;95295.31;;;24.40;13.18
61961;BME280;47923;42.506;24.192;2023-04-07T09:13:22;95266.31;;;25.53;13.30
61961;BME280;47923;42.506;24.192;2023-04-07T09:15:48;95284.66;;;27.32;11.96
61961;BME280;47923;42.506;24.192;2023-04-07T09:18:13;95275.88;;;27.96;13.18
61961;BME280;47923;42.506;24.192;2023-04-07T09:23:32;95280.91;;;28.51;11.71
61961;BME280;47923;42.506;24.192;2023-04-07T09:26:00;95199.28;;;26.88;11.82
61961;BME280;47923;42.506;24.192;2023-04-07T09:28:42;95282.53;;;28.58;12.07
61961;BME280;47923;42.506;24.192;2023-04-07T09:31:07;95286.94;;;29.90;10.99
61961;BME280;47923;42.506;24.192;2023-04-07T09:33:33;95275.72;;;28.59;10.62
61961;BME280;47923;42.506;24.192;2023-04-07T09:36:00;95089.97;;;27.87;12.04
61961;BME280;47923;42.506;24.192;2023-04-07T09:38:36;95281.47;;;29.20;12.41
61961;BME280;47923;42.506;24.192;2023-04-07T09:41:08;95271.25;;;29.11;10.22
61961;BME280;47923;42.506;24.192;2023-04-07T09:43:36;95284.97;;;29.00;10.99
61961;BME280;47923;42.506;24.192;2023-04-07T09:46:18;95265.69;;;25.21;12.39
61961;BME280;47923;42.506;24.192;2023-04-07T09:48:45;95280.22;;;24.63;13.82
61961;BME280;47923;42.506;24.192;2023-04-07T09:51:15;95271.53;;;26.06;13.00
61961;BME280;47923;42.506;24.192;2023-04-07T09:53:50;95276.50;;;27.05;11.90
61961;BME280;47923;42.506;24.192;2023-04-07T09:56:18;95276.25;;;26.84;12.35
61961;BME280;47923;42.506;24.192;2023-04-07T09:58:45;95130.69;;;26.98;11.66
61961;BME280;47923;42.506;24.192;2023-04-07T10:01:12;95254.91;;;27.57;11.74
61961;BME280;47923;42.506;24.192;2023-04-07T10:03:38;95206.34;;;29.00;11.74
61961;BME280;47923;42.506;24.192;2023-04-07T10:06:04;95267.25;;;25.59;12.89
61961;BME280;47923;42.506;24.192;2023-04-07T10:08:38;95251.91;;;25.76;12.94
61961;BME280;47923;42.506;24.192;2023-04-07T10:11:05;95232.97;;;25.84;12.78
61961;BME280;47923;42.506;24.192;2023-04-07T10:13:35;95265.47;;;26.44;12.20
61961;BME280;47923;42.506;24.192;2023-04-07T10:16:05;95269.72;;;26.63;12.74
61961;BME280;47923;42.506;24.192;2023-04-07T10:18:35;95272.34;;;24.52;13.47
61961;BME280;47923;42.506;24.192;2023-04-07T10:21:05;95196.28;;;23.33;13.75
61961;BME280;47923;42.506;24.192;2023-04-07T10:26:50;95265.69;;;25.12;14.15
61961;BME280;47923;42.506;24.192;2023-04-07T10:29:18;95288.81;;;25.73;13.35
61961;BME280;47923;42.506;24.192;2023-04-07T10:31:44;95266.59;;;26.19;12.83
61961;BME280;47923;42.506;24.192;2023-04-07T10:34:10;95071.22;;;24.42;14.15
61961;BME280;47923;42.506;24.192;2023-04-07T10:37:11;95267.38;;;25.46;13.87
61961;BME280;47923;42.506;24.192;2023-04-07T10:39:38;95108.41;;;23.13;14.97
61961;BME280;47923;42.506;24.192;2023-04-07T10:42:03;95189.09;;;22.41;15.50
61961;BME280;47923;42.506;24.192;2023-04-07T10:47:04;95273.00;;;21.65;17.63
61961;BME280;47923;42.506;24.192;2023-04-07T10:49:32;95277.72;;;21.94;18.91
61961;BME280;47923;42.506;24.192;2023-04-07T10:54:35;95274.19;;;21.93;16.90
61961;BME280;47923;42.506;24.192;2023-04-07T10:59:27;95262.38;;;20.21;17.84
61961;BME280;47923;42.506;24.192;2023-04-07T11:04:37;95243.81;;;18.59;19.82
61961;BME280;47923;42.506;24.192;2023-04-07T11:07:03;94912.75;;;16.14;19.06
61961;BME280;47923;42.506;24.192;2023-04-07T11:09:29;95262.47;;;18.10;20.34
61961;BME280;47923;42.506;24.192;2023-04-07T11:11:54;95195.19;;;16.90;21.02
61961;BME280;47923;42.506;24.192;2023-04-07T11:14:25;95268.97;;;17.55;21.34
61961;BME280;47923;42.506;24.192;2023-04-07T11:16:51;95160.50;;;16.87;21.64
61961;BME280;47923;42.506;24.192;2023-04-07T11:19:18;95263.66;;;18.09;21.69
61961;BME280;47923;42.506;24.192;2023-04-07T11:21:43;95262.34;;;18.74;21.61
61961;BME280;47923;42.506;24.192;2023-04-07T11:24:08;95261.63;;;19.17;19.27
61961;BME280;47923;42.506;24.192;2023-04-07T11:26:39;95271.56;;;19.51;20.73
61961;BME280;47923;42.506;24.192;2023-04-07T11:29:06;95258.72;;;19.48;19.89
61961;BME280;47923;42.506;24.192;2023-04-07T11:31:32;95265.16;;;19.61;18.89
61961;BME280;47923;42.506;24.192;2023-04-07T11:34:02;95239.16;;;19.69;19.64
61961;BME280;47923;42.506;24.192;2023-04-07T11:36:34;95222.34;;;19.04;18.91
61961;BME280;47923;42.506;24.192;2023-04-07T11:39:01;95248.31;;;19.39;19.15
61961;BME280;47923;42.506;24.192;2023-04-07T11:41:28;95263.19;;;19.38;19.47
61961;BME280;47923;42.506;24.192;2023-04-07T11:44:11;95234.13;;;18.77;19.59
61961;BME280;47923;42.506;24.192;2023-04-07T11:47:00;95222.97;;;17.84;20.49
61961;BME280;47923;42.506;24.192;2023-04-07T11:49:28;95139.44;;;17.86;20.44
61961;BME280;47923;42.506;24.192;2023-04-07T11:52:01;95163.03;;;17.69;20.44
61961;BME280;47923;42.506;24.192;2023-04-07T11:57:03;95016.03;;;16.42;21.18
61961;BME280;47923;42.506;24.192;2023-04-07T11:59:29;95252.06;;;18.55;21.21
61961;BME280;47923;42.506;24.192;2023-04-07T12:01:55;95247.53;;;18.95;20.53
61961;BME280;47923;42.506;24.192;2023-04-07T12:04:21;95250.28;;;18.95;20.37
61961;BME280;47923;42.506;24.192;2023-04-07T12:06:47;95259.44;;;18.58;20.22
61961;BME280;47923;42.506;24.192;2023-04-07T12:09:30;95258.75;;;18.50;20.31
61961;BME280;47923;42.506;24.192;2023-04-07T12:11:57;95163.34;;;17.79;22.05
61961;BME280;47923;42.506;24.192;2023-04-07T12:14:23;95172.75;;;17.74;21.56
61961;BME280;47923;42.506;24.192;2023-04-07T12:16:49;95158.41;;;17.66;20.72
61961;BME280;47923;42.506;24.192;2023-04-07T12:19:15;95203.38;;;16.90;21.08
61961;BME280;47923;42.506;24.192;2023-04-07T12:21:41;95262.31;;;17.18;21.48
61961;BME280;47923;42.506;24.192;2023-04-07T12:24:06;95199.53;;;16.80;21.82
61961;BME280;47923;42.506;24.192;2023-04-07T12:26:32;95263.00;;;16.88;21.80
61961;BME280;47923;42.506;24.192;2023-04-07T12:28:57;95265.69;;;16.36;21.96
61961;BME280;47923;42.506;24.192;2023-04-07T12:31:29;95267.09;;;16.03;22.88
61961;BME280;47923;42.506;24.192;2023-04-07T12:33:55;95178.22;;;15.46;23.35
61961;BME280;47923;42.506;24.192;2023-04-07T12:36:22;95106.91;;;14.96;22.22
61961;BME280;47923;42.506;24.192;2023-04-07T12:38:47;95174.41;;;15.26;23.03
61961;BME280;47923;42.506;24.192;2023-04-07T12:41:13;95267.63;;;15.73;23.31
61961;BME280;47923;42.506;24.192;2023-04-07T12:43:39;95177.25;;;14.87;22.87
61961;BME280;47923;42.506;24.192;2023-04-07T12:46:04;95276.31;;;15.22;23.85
61961;BME280;47923;42.506;24.192;2023-04-07T12:48:30;95008.06;;;12.97;23.96
61961;BME280;47923;42.506;24.192;2023-04-07T12:50:55;95213.75;;;14.07;24.42
61961;BME280;47923;42.506;24.192;2023-04-07T12:53:20;95032.69;;;12.50;25.04
61961;BME280;47923;42.506;24.192;2023-04-07T12:55:47;95272.28;;;13.83;25.44
61961;BME280;47923;42.506;24.192;2023-04-07T12:58:12;95289.78;;;13.93;25.49
61961;BME280;47923;42.506;24.192;2023-04-07T13:00:38;95151.28;;;12.85;25.91
61961;BME280;47923;42.506;24.192;2023-04-07T13:03:05;95161.38;;;12.81;26.35
61961;BME280;47923;42.506;24.192;2023-04-07T13:05:31;95286.16;;;13.53;25.42
61961;BME280;47923;42.506;24.192;2023-04-07T13:07:56;95259.47;;;13.00;26.08
61961;BME280;47923;42.506;24.192;2023-04-07T13:10:22;95266.63;;;13.23;25.91
61961;BME280;47923;42.506;24.192;2023-04-07T13:12:48;95287.53;;;13.22;26.09
61961;BME280;47923;42.506;24.192;2023-04-07T13:15:13;95185.19;;;12.54;26.36
61961;BME280;47923;42.506;24.192;2023-04-07T13:17:38;95268.63;;;12.78;26.01